Courage — WDC6907 — position and weather

sailwx.info

Track history (hours):
 
Tides and Currents Weather Stations Pressure Air Temp Water Temp Dewpoint Dewpoint Depression Visibility Wind Speed Wind Dir Waves Ship Positions

Courage

Owner: TOTE Services, Inc., Jacksonville, FL. More information available from US FCC via Universal Licensing System and Coast Guard Vessel Documentation Center.

Last reported at 2015-Mar-02 06:00 UTC. Time now 2015-Mar-05 22:37 UTC.
Position N 46°00' W 010°12'.

Type: Ship. MMSI: 367063050.

Wind from 290 at 32 knots

Waves 5.0 meters (16 feet), 5 second period

Barometer 1018.0 mb
Air temperature 12.0 ° C
Visibility: greater than 5.4 NM
Dewpoint 8.3 ° C
Water temperature 13.0 ° C

Date/timePositionNaut miles runAvg speedWind from/ knotsBaromVisibWave heightAir tempDewpointWater temp
2015-Mar-02 06:00N 46°00' W 010°12'44111.8 290 / 321018.0 5.4 5.012.0 8.313.0
2015-Feb-28 16:33N 50°25' W 001°24'1311.1
2015-Feb-28 15:22N 50°32' W 001°06'910.9
2015-Feb-28 14:33N 50°39' W 000°59'1110.7
2015-Feb-28 13:33N 50°46' W 001°12'9 9.0
2015-Feb-28 12:33N 50°52' W 001°22'1 1.4
2015-Feb-28 11:33N 50°53' W 001°24'0 0.0
2015-Feb-28 08:26N 50°53' W 001°24'0 0.0
2015-Feb-28 07:33N 50°53' W 001°24'0 0.0
2015-Feb-28 06:33N 50°53' W 001°24'0 0.0
2015-Feb-28 05:33N 50°53' W 001°24'0 0.0
2015-Feb-28 04:33N 50°53' W 001°24'0 0.0
2015-Feb-28 03:33N 50°53' W 001°24'0 0.0
2015-Feb-28 02:33N 50°53' W 001°24'0 0.0
2015-Feb-28 01:33N 50°53' W 001°24'0 0.0
2015-Feb-28 00:33N 50°53' W 001°24'0 0.0
2015-Feb-27 23:33N 50°53' W 001°24'0 0.0
2015-Feb-27 22:33N 50°53' W 001°24'0 0.0
2015-Feb-27 21:33N 50°53' W 001°24'0 0.0
2015-Feb-27 20:34N 50°53' W 001°24'0 0.0
2015-Feb-27 19:34N 50°53' W 001°24'0 0.0
2015-Feb-27 18:34N 50°53' W 001°24'0 0.0
2015-Feb-27 17:33N 50°53' W 001°24'0 0.0
2015-Feb-27 16:33N 50°53' W 001°24'0 0.0
2015-Feb-27 15:33N 50°53' W 001°24'0 0.0
2015-Feb-27 14:33N 50°53' W 001°24'0 0.0
2015-Feb-27 13:33N 50°53' W 001°24'0 0.0
2015-Feb-27 12:33N 50°53' W 001°24'0 0.0
2015-Feb-27 11:33N 50°53' W 001°24'1 1.0
2015-Feb-27 10:33N 50°52' W 001°23'9 9.1
2015-Feb-27 09:34N 50°46' W 001°13'1313.0
2015-Feb-27 08:33N 50°39' W 000°55'1010.2
2015-Feb-27 07:33N 50°36' W 000°40'1312.7
2015-Feb-27 06:33N 50°34' W 000°20'1414.3
2015-Feb-27 05:33N 50°32' E 000°03'1616.2
2015-Feb-27 04:33N 50°37' E 000°27'1615.9
2015-Feb-27 03:33N 50°43' E 000°50'1716.6
2015-Feb-27 02:30N 50°55' E 001°11'5356.2
2015-Feb-27 01:33N 51°05' E 002°34'3029.7
2015-Feb-27 00:34N 51°19' E 001°52'1717.3
2015-Feb-26 23:33N 51°33' E 002°08'1716.7
2015-Feb-26 22:33N 51°46' E 002°24'8016.0
2015-Feb-26 17:33N 52°48' E 003°47'1616.5
2015-Feb-26 16:33N 53°00' E 004°06'1715.9
2015-Feb-26 15:29N 53°12' E 004°27'1515.5
2015-Feb-26 14:32N 53°26' E 004°36'1414.1
2015-Feb-26 13:33N 53°33' E 004°55'1414.3
2015-Feb-26 12:33N 53°38' E 005°18'1414.4
2015-Feb-26 11:33N 53°42' E 005°41'1514.9
2015-Feb-26 10:33N 53°46' E 006°05'3716.6
2015-Feb-26 08:18N 53°56' E 007°07'1316.9
2015-Feb-26 07:33N 53°59' E 007°27'1414.4
2015-Feb-26 06:33N 53°53' E 007°49'1514.7
2015-Feb-26 05:33N 53°46' E 008°11'1514.8
2015-Feb-26 04:33N 53°36' E 008°30'3 2.6
2015-Feb-26 03:33N 53°34' E 008°33'1 0.6
2015-Feb-26 02:33N 53°34' E 008°34'0 0.0
2015-Feb-26 01:33N 53°34' E 008°34'0 0.0
2015-Feb-26 00:33N 53°34' E 008°34'0 0.0
2015-Feb-25 23:33N 53°34' E 008°34'0 0.0
2015-Feb-25 22:33N 53°34' E 008°34'0 0.0
2015-Feb-25 21:33N 53°34' E 008°34'0 0.0
2015-Feb-25 20:33N 53°34' E 008°34'0 0.0
2015-Feb-25 19:33N 53°34' E 008°34'0 0.0
2015-Feb-25 18:33N 53°34' E 008°34'0 0.0
2015-Feb-25 17:33N 53°34' E 008°34'0 0.0
2015-Feb-25 16:33N 53°34' E 008°34'0 0.0
2015-Feb-25 15:33N 53°34' E 008°34'0 0.0
2015-Feb-25 14:33N 53°34' E 008°34'0 0.0
2015-Feb-25 13:33N 53°34' E 008°34'0 0.0
2015-Feb-25 12:33N 53°34' E 008°34'0 0.0
2015-Feb-25 11:33N 53°34' E 008°34'0 0.0
2015-Feb-25 10:33N 53°34' E 008°34'0 0.0
2015-Feb-25 09:33N 53°34' E 008°34'0 0.0
2015-Feb-25 08:33N 53°34' E 008°34'0 0.0
2015-Feb-25 07:33N 53°34' E 008°34'0 0.0
2015-Feb-25 06:33N 53°34' E 008°34'0 0.0
2015-Feb-25 05:33N 53°34' E 008°34'0 0.0
2015-Feb-25 04:33N 53°34' E 008°34'0 0.0
2015-Feb-25 03:33N 53°34' E 008°34'0 0.0
2015-Feb-25 02:33N 53°34' E 008°34'0 0.0
2015-Feb-25 01:33N 53°34' E 008°34'0 0.0
2015-Feb-25 00:33N 53°34' E 008°34'0 0.0
2015-Feb-24 23:33N 53°34' E 008°34'1 0.7
2015-Feb-24 22:33N 53°34' E 008°33'0 0.2
2015-Feb-24 21:33N 53°35' E 008°33'0 0.0
2015-Feb-24 20:33N 53°35' E 008°33'0 0.0
2015-Feb-24 19:33N 53°35' E 008°33'0 0.0
2015-Feb-24 18:33N 53°35' E 008°33'0 0.0
2015-Feb-24 17:33N 53°35' E 008°33'0 0.0
2015-Feb-24 16:33N 53°35' E 008°33'0 0.0
2015-Feb-24 15:33N 53°35' E 008°33'0 0.0
2015-Feb-24 14:33N 53°35' E 008°33'0 0.0
2015-Feb-24 13:33N 53°35' E 008°33'0 0.0
2015-Feb-24 12:33N 53°35' E 008°33'0 0.0
2015-Feb-24 11:33N 53°35' E 008°33'0 0.4
2015-Feb-24 10:33N 53°34' E 008°33'1 1.1
2015-Feb-24 09:33N 53°35' E 008°32'1111.0
2015-Feb-24 08:33N 53°43' E 008°18'1413.9
2015-Feb-24 07:33N 53°51' E 007°60'1212.3
2015-Feb-24 06:33N 53°54' E 007°39'1514.5
2015-Feb-24 05:32N 53°52' E 007°14'3514.6
2015-Feb-24 03:09N 53°44' E 006°17'914.5
2015-Feb-24 02:33N 53°42' E 006°03'1514.7
2015-Feb-24 01:34N 53°37' E 005°39'1515.1
2015-Feb-24 00:33N 53°32' E 005°15'1515.5
2015-Feb-23 23:33N 53°26' E 004°51'1515.4
2015-Feb-23 22:34N 53°14' E 004°35'1915.8
2015-Feb-23 21:23N 52°58' E 004°19'3316.2
2015-Feb-23 19:22N 52°33' E 003°46'3816.9
2015-Feb-23 17:06N 51°57' E 003°23'916.7
2015-Feb-23 16:32N 51°48' E 003°18'1313.6
2015-Feb-23 15:33N 51°35' E 003°24'1212.0
2015-Feb-23 14:34N 51°26' E 003°35'8 8.4
2015-Feb-23 13:34N 51°22' E 003°47'1010.0
2015-Feb-23 12:33N 51°26' E 004°01'1010.4
2015-Feb-23 11:33N 51°21' E 004°16'5 4.9
2015-Feb-23 10:33N 51°16' E 004°17'1 0.6
2015-Feb-23 09:33N 51°16' E 004°16'1 1.4
2015-Feb-23 08:33N 51°15' E 004°14'0 0.0
2015-Feb-23 07:33N 51°15' E 004°14'0 0.0
2015-Feb-23 06:33N 51°15' E 004°14'0 0.0
2015-Feb-23 05:33N 51°15' E 004°14'0 0.0
2015-Feb-23 04:33N 51°15' E 004°14'0 0.0
2015-Feb-23 03:33N 51°15' E 004°14'0 0.0
2015-Feb-23 02:33N 51°15' E 004°14'0 0.0
2015-Feb-23 01:33N 51°15' E 004°14'0 0.0
2015-Feb-23 00:33N 51°15' E 004°14'0 0.0
2015-Feb-22 23:30N 51°15' E 004°14'0 0.0
2015-Feb-22 22:33N 51°15' E 004°14'0 0.0
2015-Feb-22 21:33N 51°15' E 004°14'0 0.0
2015-Feb-22 20:33N 51°15' E 004°14'0 0.0
2015-Feb-22 19:33N 51°15' E 004°14'0 0.0
2015-Feb-22 18:33N 51°15' E 004°14'0 0.0
2015-Feb-22 17:33N 51°15' E 004°14'0 0.0
2015-Feb-22 16:33N 51°15' E 004°14'0 0.0
2015-Feb-22 15:30N 51°15' E 004°14'0 0.0
2015-Feb-22 14:33N 51°15' E 004°14'0 0.0
2015-Feb-22 13:33N 51°15' E 004°14'0 0.0
2015-Feb-22 12:33N 51°15' E 004°14'0 0.0
2015-Feb-22 11:33N 51°15' E 004°14'0 0.0
2015-Feb-22 10:29N 51°15' E 004°14'0 0.0
2015-Feb-22 09:32N 51°15' E 004°14'0 0.0
2015-Feb-22 08:32N 51°15' E 004°14'0 0.0
2015-Feb-22 07:32N 51°15' E 004°14'0 0.0
2015-Feb-22 06:32N 51°15' E 004°14'0 0.0
2015-Feb-22 05:32N 51°15' E 004°14'0 0.0
2015-Feb-22 04:32N 51°15' E 004°14'0 0.0
2015-Feb-22 03:32N 51°15' E 004°14'0 0.0
2015-Feb-22 02:32N 51°15' E 004°14'0 0.0
2015-Feb-22 01:32N 51°15' E 004°14'0 0.0
2015-Feb-22 00:32N 51°15' E 004°14'0 0.0
2015-Feb-21 23:32N 51°15' E 004°14'0 0.0
2015-Feb-21 22:32N 51°15' E 004°14'0 0.0
2015-Feb-21 21:32N 51°15' E 004°14'0 0.0
2015-Feb-21 20:32N 51°15' E 004°14'0 0.0
2015-Feb-21 19:32N 51°15' E 004°14'0 0.0
2015-Feb-21 18:32N 51°15' E 004°14'0 0.0
2015-Feb-21 17:32N 51°15' E 004°14'0 0.0
2015-Feb-21 16:32N 51°15' E 004°14'0 0.0
2015-Feb-21 15:32N 51°15' E 004°14'0 0.0
2015-Feb-21 14:32N 51°15' E 004°14'1 0.6
2015-Feb-21 13:31N 51°16' E 004°14'0 0.0
2015-Feb-21 12:31N 51°16' E 004°14'0 0.0
2015-Feb-21 11:31N 51°16' E 004°14'0 0.0
2015-Feb-21 10:31N 51°16' E 004°14'0 0.0
2015-Feb-21 09:31N 51°16' E 004°14'0 0.0
2015-Feb-21 08:31N 51°16' E 004°14'0 0.0
2015-Feb-21 07:34N 51°16' E 004°14'0 0.0
2015-Feb-21 06:33N 51°16' E 004°14'0 0.0
2015-Feb-21 05:27N 51°16' E 004°14'0 0.0
2015-Feb-21 04:33N 51°16' E 004°14'0 0.0
2015-Feb-21 03:33N 51°16' E 004°14'0 0.0
2015-Feb-21 02:33N 51°16' E 004°14'0 0.0
2015-Feb-21 01:33N 51°16' E 004°14'0 0.0
2015-Feb-21 00:33N 51°16' E 004°14'0 0.0
2015-Feb-20 23:33N 51°16' E 004°14'0 0.0
2015-Feb-20 22:33N 51°16' E 004°14'0 0.0
2015-Feb-20 21:33N 51°16' E 004°14'0 0.0
2015-Feb-20 20:30N 51°16' E 004°14'0 0.0
2015-Feb-20 19:33N 51°16' E 004°14'0 0.0
2015-Feb-20 18:33N 51°16' E 004°14'0 0.0
2015-Feb-20 17:33N 51°16' E 004°14'0 0.0
2015-Feb-20 16:27N 51°16' E 004°14'0 0.0
2015-Feb-20 15:33N 51°16' E 004°14'0 0.0
2015-Feb-20 14:33N 51°16' E 004°14'1 0.6
2015-Feb-20 13:33N 51°16' E 004°15'1 1.2
2015-Feb-20 12:33N 51°16' E 004°17'2 1.7
2015-Feb-20 11:33N 51°17' E 004°19'6 5.9
2015-Feb-20 10:33N 51°22' E 004°14'8 8.0
2015-Feb-20 09:33N 51°25' E 004°02'9 9.3
2015-Feb-20 08:34N 51°21' E 003°49'9 8.6
2015-Feb-20 07:33N 51°26' E 003°37'9 8.8
2015-Feb-20 06:33N 51°24' E 003°24'  
Track history (hours):
 
Tides and Currents Weather Stations Pressure Air Temp Water Temp Dewpoint Dewpoint Depression Visibility Wind Speed Wind Dir Waves Ship Positions

Courage

Owner: TOTE Services, Inc., Jacksonville, FL. More information available from US FCC via Universal Licensing System and Coast Guard Vessel Documentation Center.

Last reported at 2015-Mar-02 06:00 UTC. Time now 2015-Mar-05 22:37 UTC.
Position N 46°00' W 010°12'.

Type: Ship. MMSI: 367063050.

Wind from 290 at 32 knots

Waves 5.0 meters (16 feet), 5 second period

Barometer 1018.0 mb
Air temperature 12.0 ° C
Visibility: greater than 5.4 NM
Dewpoint 8.3 ° C
Water temperature 13.0 ° C

Date/timePositionNaut miles runAvg speedWind from/ knotsBaromVisibWave heightAir tempDewpointWater temp
2015-Mar-02 06:00N 46°00' W 010°12'44111.8 290 / 321018.0 5.4 5.012.0 8.313.0
2015-Feb-28 16:33N 50°25' W 001°24'1311.1
2015-Feb-28 15:22N 50°32' W 001°06'910.9
2015-Feb-28 14:33N 50°39' W 000°59'1110.7
2015-Feb-28 13:33N 50°46' W 001°12'9 9.0
2015-Feb-28 12:33N 50°52' W 001°22'1 1.4
2015-Feb-28 11:33N 50°53' W 001°24'0 0.0
2015-Feb-28 08:26N 50°53' W 001°24'0 0.0
2015-Feb-28 07:33N 50°53' W 001°24'0 0.0
2015-Feb-28 06:33N 50°53' W 001°24'0 0.0
2015-Feb-28 05:33N 50°53' W 001°24'0 0.0
2015-Feb-28 04:33N 50°53' W 001°24'0 0.0
2015-Feb-28 03:33N 50°53' W 001°24'0 0.0
2015-Feb-28 02:33N 50°53' W 001°24'0 0.0
2015-Feb-28 01:33N 50°53' W 001°24'0 0.0
2015-Feb-28 00:33N 50°53' W 001°24'0 0.0
2015-Feb-27 23:33N 50°53' W 001°24'0 0.0
2015-Feb-27 22:33N 50°53' W 001°24'0 0.0
2015-Feb-27 21:33N 50°53' W 001°24'0 0.0
2015-Feb-27 20:34N 50°53' W 001°24'0 0.0
2015-Feb-27 19:34N 50°53' W 001°24'0 0.0
2015-Feb-27 18:34N 50°53' W 001°24'0 0.0
2015-Feb-27 17:33N 50°53' W 001°24'0 0.0
2015-Feb-27 16:33N 50°53' W 001°24'0 0.0
2015-Feb-27 15:33N 50°53' W 001°24'0 0.0
2015-Feb-27 14:33N 50°53' W 001°24'0 0.0
2015-Feb-27 13:33N 50°53' W 001°24'0 0.0
2015-Feb-27 12:33N 50°53' W 001°24'0 0.0
2015-Feb-27 11:33N 50°53' W 001°24'1 1.0
2015-Feb-27 10:33N 50°52' W 001°23'9 9.1
2015-Feb-27 09:34N 50°46' W 001°13'1313.0
2015-Feb-27 08:33N 50°39' W 000°55'1010.2
2015-Feb-27 07:33N 50°36' W 000°40'1312.7
2015-Feb-27 06:33N 50°34' W 000°20'1414.3
2015-Feb-27 05:33N 50°32' E 000°03'1616.2
2015-Feb-27 04:33N 50°37' E 000°27'1615.9
2015-Feb-27 03:33N 50°43' E 000°50'1716.6
2015-Feb-27 02:30N 50°55' E 001°11'5356.2
2015-Feb-27 01:33N 51°05' E 002°34'3029.7
2015-Feb-27 00:34N 51°19' E 001°52'1717.3
2015-Feb-26 23:33N 51°33' E 002°08'1716.7
2015-Feb-26 22:33N 51°46' E 002°24'8016.0
2015-Feb-26 17:33N 52°48' E 003°47'1616.5
2015-Feb-26 16:33N 53°00' E 004°06'1715.9
2015-Feb-26 15:29N 53°12' E 004°27'1515.5
2015-Feb-26 14:32N 53°26' E 004°36'1414.1
2015-Feb-26 13:33N 53°33' E 004°55'1414.3
2015-Feb-26 12:33N 53°38' E 005°18'1414.4
2015-Feb-26 11:33N 53°42' E 005°41'1514.9
2015-Feb-26 10:33N 53°46' E 006°05'3716.6
2015-Feb-26 08:18N 53°56' E 007°07'1316.9
2015-Feb-26 07:33N 53°59' E 007°27'1414.4
2015-Feb-26 06:33N 53°53' E 007°49'1514.7
2015-Feb-26 05:33N 53°46' E 008°11'1514.8
2015-Feb-26 04:33N 53°36' E 008°30'3 2.6
2015-Feb-26 03:33N 53°34' E 008°33'1 0.6
2015-Feb-26 02:33N 53°34' E 008°34'0 0.0
2015-Feb-26 01:33N 53°34' E 008°34'0 0.0
2015-Feb-26 00:33N 53°34' E 008°34'0 0.0
2015-Feb-25 23:33N 53°34' E 008°34'0 0.0
2015-Feb-25 22:33N 53°34' E 008°34'0 0.0
2015-Feb-25 21:33N 53°34' E 008°34'0 0.0
2015-Feb-25 20:33N 53°34' E 008°34'0 0.0
2015-Feb-25 19:33N 53°34' E 008°34'0 0.0
2015-Feb-25 18:33N 53°34' E 008°34'0 0.0
2015-Feb-25 17:33N 53°34' E 008°34'0 0.0
2015-Feb-25 16:33N 53°34' E 008°34'0 0.0
2015-Feb-25 15:33N 53°34' E 008°34'0 0.0
2015-Feb-25 14:33N 53°34' E 008°34'0 0.0
2015-Feb-25 13:33N 53°34' E 008°34'0 0.0
2015-Feb-25 12:33N 53°34' E 008°34'0 0.0
2015-Feb-25 11:33N 53°34' E 008°34'0 0.0
2015-Feb-25 10:33N 53°34' E 008°34'0 0.0
2015-Feb-25 09:33N 53°34' E 008°34'0 0.0
2015-Feb-25 08:33N 53°34' E 008°34'0 0.0
2015-Feb-25 07:33N 53°34' E 008°34'0 0.0
2015-Feb-25 06:33N 53°34' E 008°34'0 0.0
2015-Feb-25 05:33N 53°34' E 008°34'0 0.0
2015-Feb-25 04:33N 53°34' E 008°34'0 0.0
2015-Feb-25 03:33N 53°34' E 008°34'0 0.0
2015-Feb-25 02:33N 53°34' E 008°34'0 0.0
2015-Feb-25 01:33N 53°34' E 008°34'0 0.0
2015-Feb-25 00:33N 53°34' E 008°34'0 0.0
2015-Feb-24 23:33N 53°34' E 008°34'1 0.7
2015-Feb-24 22:33N 53°34' E 008°33'0 0.2
2015-Feb-24 21:33N 53°35' E 008°33'0 0.0
2015-Feb-24 20:33N 53°35' E 008°33'0 0.0
2015-Feb-24 19:33N 53°35' E 008°33'0 0.0
2015-Feb-24 18:33N 53°35' E 008°33'0 0.0
2015-Feb-24 17:33N 53°35' E 008°33'0 0.0
2015-Feb-24 16:33N 53°35' E 008°33'0 0.0
2015-Feb-24 15:33N 53°35' E 008°33'0 0.0
2015-Feb-24 14:33N 53°35' E 008°33'0 0.0
2015-Feb-24 13:33N 53°35' E 008°33'0 0.0
2015-Feb-24 12:33N 53°35' E 008°33'0 0.0
2015-Feb-24 11:33N 53°35' E 008°33'0 0.4
2015-Feb-24 10:33N 53°34' E 008°33'1 1.1
2015-Feb-24 09:33N 53°35' E 008°32'1111.0
2015-Feb-24 08:33N 53°43' E 008°18'1413.9
2015-Feb-24 07:33N 53°51' E 007°60'1212.3
2015-Feb-24 06:33N 53°54' E 007°39'1514.5
2015-Feb-24 05:32N 53°52' E 007°14'3514.6
2015-Feb-24 03:09N 53°44' E 006°17'914.5
2015-Feb-24 02:33N 53°42' E 006°03'1514.7
2015-Feb-24 01:34N 53°37' E 005°39'1515.1
2015-Feb-24 00:33N 53°32' E 005°15'1515.5
2015-Feb-23 23:33N 53°26' E 004°51'1515.4
2015-Feb-23 22:34N 53°14' E 004°35'1915.8
2015-Feb-23 21:23N 52°58' E 004°19'3316.2
2015-Feb-23 19:22N 52°33' E 003°46'3816.9
2015-Feb-23 17:06N 51°57' E 003°23'916.7
2015-Feb-23 16:32N 51°48' E 003°18'1313.6
2015-Feb-23 15:33N 51°35' E 003°24'1212.0
2015-Feb-23 14:34N 51°26' E 003°35'8 8.4
2015-Feb-23 13:34N 51°22' E 003°47'1010.0
2015-Feb-23 12:33N 51°26' E 004°01'1010.4
2015-Feb-23 11:33N 51°21' E 004°16'5 4.9
2015-Feb-23 10:33N 51°16' E 004°17'1 0.6
2015-Feb-23 09:33N 51°16' E 004°16'1 1.4
2015-Feb-23 08:33N 51°15' E 004°14'0 0.0
2015-Feb-23 07:33N 51°15' E 004°14'0 0.0
2015-Feb-23 06:33N 51°15' E 004°14'0 0.0
2015-Feb-23 05:33N 51°15' E 004°14'0 0.0
2015-Feb-23 04:33N 51°15' E 004°14'0 0.0
2015-Feb-23 03:33N 51°15' E 004°14'0 0.0
2015-Feb-23 02:33N 51°15' E 004°14'0 0.0
2015-Feb-23 01:33N 51°15' E 004°14'0 0.0
2015-Feb-23 00:33N 51°15' E 004°14'0 0.0
2015-Feb-22 23:30N 51°15' E 004°14'0 0.0
2015-Feb-22 22:33N 51°15' E 004°14'0 0.0
2015-Feb-22 21:33N 51°15' E 004°14'0 0.0
2015-Feb-22 20:33N 51°15' E 004°14'0 0.0
2015-Feb-22 19:33N 51°15' E 004°14'0 0.0
2015-Feb-22 18:33N 51°15' E 004°14'0 0.0
2015-Feb-22 17:33N 51°15' E 004°14'0 0.0
2015-Feb-22 16:33N 51°15' E 004°14'0 0.0
2015-Feb-22 15:30N 51°15' E 004°14'0 0.0
2015-Feb-22 14:33N 51°15' E 004°14'0 0.0
2015-Feb-22 13:33N 51°15' E 004°14'0 0.0
2015-Feb-22 12:33N 51°15' E 004°14'0 0.0
2015-Feb-22 11:33N 51°15' E 004°14'0 0.0
2015-Feb-22 10:29N 51°15' E 004°14'0 0.0
2015-Feb-22 09:32N 51°15' E 004°14'0 0.0
2015-Feb-22 08:32N 51°15' E 004°14'0 0.0
2015-Feb-22 07:32N 51°15' E 004°14'0 0.0
2015-Feb-22 06:32N 51°15' E 004°14'0 0.0
2015-Feb-22 05:32N 51°15' E 004°14'0 0.0
2015-Feb-22 04:32N 51°15' E 004°14'0 0.0
2015-Feb-22 03:32N 51°15' E 004°14'0 0.0
2015-Feb-22 02:32N 51°15' E 004°14'0 0.0
2015-Feb-22 01:32N 51°15' E 004°14'0 0.0
2015-Feb-22 00:32N 51°15' E 004°14'0 0.0
2015-Feb-21 23:32N 51°15' E 004°14'0 0.0
2015-Feb-21 22:32N 51°15' E 004°14'0 0.0
2015-Feb-21 21:32N 51°15' E 004°14'0 0.0
2015-Feb-21 20:32N 51°15' E 004°14'0 0.0
2015-Feb-21 19:32N 51°15' E 004°14'0 0.0
2015-Feb-21 18:32N 51°15' E 004°14'0 0.0
2015-Feb-21 17:32N 51°15' E 004°14'0 0.0
2015-Feb-21 16:32N 51°15' E 004°14'0 0.0
2015-Feb-21 15:32N 51°15' E 004°14'0 0.0
2015-Feb-21 14:32N 51°15' E 004°14'1 0.6
2015-Feb-21 13:31N 51°16' E 004°14'0 0.0
2015-Feb-21 12:31N 51°16' E 004°14'0 0.0
2015-Feb-21 11:31N 51°16' E 004°14'0 0.0
2015-Feb-21 10:31N 51°16' E 004°14'0 0.0
2015-Feb-21 09:31N 51°16' E 004°14'0 0.0
2015-Feb-21 08:31N 51°16' E 004°14'0 0.0
2015-Feb-21 07:34N 51°16' E 004°14'0 0.0
2015-Feb-21 06:33N 51°16' E 004°14'0 0.0
2015-Feb-21 05:27N 51°16' E 004°14'0 0.0
2015-Feb-21 04:33N 51°16' E 004°14'0 0.0
2015-Feb-21 03:33N 51°16' E 004°14'0 0.0
2015-Feb-21 02:33N 51°16' E 004°14'0 0.0
2015-Feb-21 01:33N 51°16' E 004°14'0 0.0
2015-Feb-21 00:33N 51°16' E 004°14'0 0.0
2015-Feb-20 23:33N 51°16' E 004°14'0 0.0
2015-Feb-20 22:33N 51°16' E 004°14'0 0.0
2015-Feb-20 21:33N 51°16' E 004°14'0 0.0
2015-Feb-20 20:30N 51°16' E 004°14'0 0.0
2015-Feb-20 19:33N 51°16' E 004°14'0 0.0
2015-Feb-20 18:33N 51°16' E 004°14'0 0.0
2015-Feb-20 17:33N 51°16' E 004°14'0 0.0
2015-Feb-20 16:27N 51°16' E 004°14'0 0.0
2015-Feb-20 15:33N 51°16' E 004°14'0 0.0
2015-Feb-20 14:33N 51°16' E 004°14'1 0.6
2015-Feb-20 13:33N 51°16' E 004°15'1 1.2
2015-Feb-20 12:33N 51°16' E 004°17'2 1.7
2015-Feb-20 11:33N 51°17' E 004°19'6 5.9
2015-Feb-20 10:33N 51°22' E 004°14'8 8.0
2015-Feb-20 09:33N 51°25' E 004°02'9 9.3
2015-Feb-20 08:34N 51°21' E 003°49'9 8.6
2015-Feb-20 07:33N 51°26' E 003°37'9 8.8
2015-Feb-20 06:33N 51°24' E 003°24'  

Dump ship's entire track history